Time;durP1;ratioP1;P1;durP2;ratioP2;P2;SDS_P1;SDS_P2;PMS_P1;PMS_P2;Temp;Humidity;BMP_temperature;BMP_pressure;BME280_temperature;BME280_humidity;BME280_pressure;Samples;Min_cycle;Max_cycle;Signal;HPM_P1;HPM_P2
2023/10/29 00:00:46;;;;;;;3.67;2.03;;;;;;;3.52;78.74;97639.09;5031564;28;20098;-39
2023/10/29 00:03:12;;;;;;;3.78;1.88;;;;;;;3.32;78.56;97605.63;5037950;28;20045;-40
2023/10/29 00:05:38;;;;;;;3.88;1.95;;;;;;;3.37;78.89;97622.53;5029804;28;20044;-40
2023/10/29 00:08:05;;;;;;;4.50;2.22;;;;;;;3.38;78.58;97626.78;5045643;28;20095;-39
2023/10/29 00:10:31;;;;;;;2.65;1.70;;;;;;;3.57;78.86;97655.16;5036491;28;20539;-40
2023/10/29 00:12:57;;;;;;;3.70;2.30;;;;;;;3.60;78.70;97655.06;5033133;28;20044;-39
2023/10/29 00:15:23;;;;;;;4.32;2.10;;;;;;;3.29;78.46;97614.31;5033493;28;20037;-40
2023/10/29 00:17:49;;;;;;;2.55;1.75;;;;;;;3.62;78.48;97663.50;5031491;28;20095;-40
2023/10/29 00:20:15;;;;;;;3.55;2.20;;;;;;;3.66;78.61;97675.38;5038096;28;20036;-39
2023/10/29 00:22:41;;;;;;;4.03;1.77;;;;;;;3.63;78.51;97675.47;5032437;28;20124;-40
2023/10/29 00:25:07;;;;;;;3.60;2.35;;;;;;;3.64;78.17;97677.16;5048884;28;20048;-39
2023/10/29 00:27:33;;;;;;;5.88;2.15;;;;;;;3.66;78.27;97682.25;5033130;28;20512;-42
2023/10/29 00:29:59;;;;;;;5.10;2.60;;;;;;;3.46;78.53;97644.44;5031068;28;20406;-39
2023/10/29 00:32:26;;;;;;;3.95;2.00;;;;;;;3.67;78.48;97684.72;5030653;28;20056;-39
2023/10/29 00:34:52;;;;;;;4.95;1.95;;;;;;;3.65;78.56;97675.41;5033916;28;20045;-42
2023/10/29 00:37:18;;;;;;;2.05;1.48;;;;;;;3.63;78.28;97687.47;5052303;28;20585;-43
2023/10/29 00:39:44;;;;;;;4.00;1.67;;;;;;;3.62;78.08;97688.38;5034133;28;20124;-40
2023/10/29 00:42:10;;;;;;;2.50;1.67;;;;;;;3.62;78.54;97698.66;5032449;28;20516;-39
2023/10/29 00:44:37;;;;;;;3.45;1.23;;;;;;;3.61;78.56;97684.97;5046360;28;20045;-40
2023/10/29 00:47:05;;;;;;;4.40;2.22;;;;;;;3.65;78.45;97683.13;5033321;28;20115;-40
2023/10/29 00:49:31;;;;;;;3.28;1.63;;;;;;;3.69;78.75;97697.53;5048803;28;20079;-40
2023/10/29 00:51:57;;;;;;;2.30;1.50;;;;;;;3.68;78.76;97696.69;5031283;28;20045;-40
2023/10/29 00:54:23;;;;;;;2.72;1.60;;;;;;;3.55;79.01;97674.09;5031196;28;20044;-40
2023/10/29 00:56:50;;;;;;;2.70;1.20;;;;;;;3.70;79.21;97692.34;5032484;28;20045;-40
2023/10/29 00:59:15;;;;;;;2.55;1.55;;;;;;;3.70;79.07;97702.63;5048848;28;20120;-39
2023/10/29 01:01:41;;;;;;;3.28;2.00;;;;;;;3.53;78.97;97676.72;5029839;28;20083;-39
2023/10/29 01:04:08;;;;;;;5.25;2.05;;;;;;;3.74;79.27;97709.31;5034078;28;20517;-41
2023/10/29 01:06:40;;;;;;;2.38;1.30;;;;;;;3.67;78.94;97707.84;5044931;28;20132;-40
2023/10/29 01:09:07;;;;;;;1.58;1.17;;;;;;;3.67;79.06;97717.28;5033222;28;20151;-39
2023/10/29 01:11:34;;;;;;;2.67;1.25;;;;;;;3.65;78.85;97712.22;5032593;28;20190;-40
2023/10/29 01:14:01;;;;;;;2.25;1.40;;;;;;;3.62;79.31;97724.34;5032741;28;20038;-39
2023/10/29 01:16:30;;;;;;;2.45;1.30;;;;;;;3.64;79.15;97720.81;5047850;28;20106;-41
2023/10/29 01:18:58;;;;;;;3.25;1.85;;;;;;;3.66;78.98;97734.47;5028597;28;20067;-41
2023/10/29 01:21:26;;;;;;;2.03;1.25;;;;;;;3.69;78.94;97728.34;5032616;28;20056;-39
2023/10/29 01:23:52;;;;;;;2.65;1.40;;;;;;;3.70;78.92;97737.75;5036025;28;20536;-40
2023/10/29 01:26:18;;;;;;;2.15;1.35;;;;;;;3.68;78.96;97732.66;5033096;28;20045;-40
2023/10/29 01:28:45;;;;;;;1.50;1.00;;;;;;;3.52;78.76;97721.28;5029841;28;20390;-40
2023/10/29 01:31:11;;;;;;;2.53;1.42;;;;;;;3.70;78.80;97755.72;5028659;28;20057;-40
2023/10/29 01:33:40;;;;;;;1.63;1.23;;;;;;;3.73;78.92;97756.44;5029017;28;20087;-40
2023/10/29 01:36:06;;;;;;;2.47;1.65;;;;;;;3.74;79.09;97759.84;5026642;28;20448;-40
2023/10/29 01:38:33;;;;;;;2.72;1.17;;;;;;;3.67;79.16;97750.69;5038457;28;20037;-39
2023/10/29 01:41:00;;;;;;;1.35;0.90;;;;;;;3.69;79.09;97762.59;5032931;28;20072;-41
2023/10/29 01:43:26;;;;;;;1.63;0.90;;;;;;;3.70;79.29;97766.84;5032933;28;20041;-40
2023/10/29 01:45:53;;;;;;;3.35;1.13;;;;;;;3.69;78.92;97762.59;5032547;28;20444;-40
2023/10/29 01:48:21;;;;;;;2.08;1.13;;;;;;;3.68;79.16;97776.34;5037181;28;20041;-40
2023/10/29 01:50:50;;;;;;;1.70;1.10;;;;;;;3.68;79.22;97768.63;5036584;28;20033;-39
2023/10/29 01:53:17;;;;;;;2.42;1.10;;;;;;;3.68;79.11;97773.75;5032957;28;20041;-40
2023/10/29 01:55:44;;;;;;;2.13;1.23;;;;;;;3.71;78.99;97771.09;5033024;28;20420;-39
2023/10/29 01:58:10;;;;;;;1.48;0.90;;;;;;;3.73;78.69;97774.44;5047224;28;20127;-40
2023/10/29 02:00:36;;;;;;;1.65;1.00;;;;;;;3.74;78.74;97781.25;5048128;28;20106;-40
2023/10/29 02:03:03;;;;;;;1.25;0.98;;;;;;;3.74;78.67;97783.81;5045930;28;20061;-40
2023/10/29 02:05:29;;;;;;;1.38;0.77;;;;;;;3.76;78.42;97783.78;5029651;28;20029;-39
2023/10/29 02:07:56;;;;;;;1.23;0.80;;;;;;;3.75;78.56;97790.63;5046905;28;20843;-38
2023/10/29 02:10:25;;;;;;;1.35;0.70;;;;;;;3.74;78.65;97799.25;5030517;28;20049;-40
2023/10/29 02:12:55;;;;;;;1.38;0.90;;;;;;;3.74;78.30;97804.38;5045388;28;20037;-40
2023/10/29 02:15:21;;;;;;;1.95;0.95;;;;;;;3.76;78.11;97806.91;5046132;28;20033;-39
2023/10/29 02:17:47;;;;;;;1.00;0.70;;;;;;;3.56;78.24;97783.69;5030819;28;20048;-39
2023/10/29 02:20:14;;;;;;;1.10;0.90;;;;;;;3.76;78.05;97817.19;5046670;28;20069;-39
2023/10/29 02:22:40;;;;;;;1.40;0.80;;;;;;;3.75;78.07;97824.03;5029312;28;20041;-40
2023/10/29 02:25:08;;;;;;;1.63;0.80;;;;;;;3.74;78.02;97826.66;5046909;28;20067;-40
2023/10/29 02:27:35;;;;;;;1.05;0.80;;;;;;;3.72;77.60;97829.28;5031573;28;20041;-40
2023/10/29 02:30:01;;;;;;;1.30;1.00;;;;;;;3.69;77.76;97831.97;5029194;28;20068;-40
2023/10/29 02:32:34;;;;;;;1.10;0.80;;;;;;;3.73;77.62;97837.84;5028599;28;20053;-39
2023/10/29 02:35:00;;;;;;;2.40;0.80;;;;;;;3.71;77.45;97831.94;5030855;28;20145;-40
2023/10/29 02:37:26;;;;;;;1.35;0.93;;;;;;;3.71;77.25;97832.78;5034317;28;20542;-40
2023/10/29 02:39:52;;;;;;;1.55;0.70;;;;;;;3.74;77.16;97844.66;5031590;28;20038;-40
2023/10/29 02:42:19;;;;;;;1.13;0.70;;;;;;;3.75;77.09;97844.59;5032689;28;20044;-41
2023/10/29 02:44:44;;;;;;;1.17;0.80;;;;;;;3.72;77.03;97856.72;5032648;28;20045;-39
2023/10/29 02:47:10;;;;;;;1.27;0.90;;;;;;;3.72;76.96;97852.41;5045555;28;20042;-39
2023/10/29 02:49:36;;;;;;;1.77;1.00;;;;;;;3.73;76.87;97858.38;5035642;28;20086;-40
2023/10/29 02:52:03;;;;;;;0.70;0.70;;;;;;;3.74;77.01;97858.34;5049640;28;20045;-38
2023/10/29 02:54:29;;;;;;;1.05;0.80;;;;;;;3.77;76.85;97868.50;5032621;28;20067;-40
2023/10/29 02:56:56;;;;;;;2.20;0.98;;;;;;;3.73;76.70;97868.66;5050182;28;20046;-39
2023/10/29 02:59:22;;;;;;;1.48;0.90;;;;;;;3.74;76.50;97876.31;5059799;28;20029;-40
2023/10/29 03:01:49;;;;;;;1.52;0.98;;;;;;;3.76;76.33;97884.84;5041787;28;20517;-41
2023/10/29 03:04:15;;;;;;;1.42;0.98;;;;;;;3.78;76.47;97885.59;5051452;28;20071;-40
2023/10/29 03:06:41;;;;;;;1.80;1.20;;;;;;;3.79;76.41;97887.28;5051431;28;20579;-39
2023/10/29 03:09:09;;;;;;;1.93;1.07;;;;;;;3.77;76.18;97893.34;5034719;28;20091;-40
2023/10/29 03:11:36;;;;;;;1.88;1.10;;;;;;;3.78;76.19;97903.59;5035655;28;20763;-40
2023/10/29 03:14:02;;;;;;;1.80;1.05;;;;;;;3.77;75.77;97913.91;5035940;28;20045;-40
2023/10/29 03:16:29;;;;;;;2.25;1.17;;;;;;;3.66;76.04;97896.34;5051325;28;20123;-39
2023/10/29 03:18:55;;;;;;;1.58;1.10;;;;;;;3.72;76.61;97915.81;5046822;28;20052;-41
2023/10/29 03:21:22;;;;;;;1.58;1.40;;;;;;;3.74;76.45;97919.19;5035460;28;20037;-39
2023/10/29 03:23:49;;;;;;;1.73;1.30;;;;;;;3.73;76.34;97918.34;5028876;28;20414;-40
2023/10/29 03:26:15;;;;;;;5.43;1.73;;;;;;;3.74;76.65;97930.28;5036367;28;20043;-39
2023/10/29 03:28:42;;;;;;;3.38;1.40;;;;;;;3.75;76.64;97931.97;5047472;28;20048;-39
2023/10/29 03:31:13;;;;;;;2.50;1.73;;;;;;;3.41;76.66;97877.50;5049309;28;20096;-39
2023/10/29 03:33:40;;;;;;;3.53;1.90;;;;;;;3.57;76.71;97903.50;5033537;28;20387;-40
2023/10/29 03:36:07;;;;;;;2.53;1.77;;;;;;;3.70;76.50;97928.72;5035161;28;20048;-40
2023/10/29 03:38:33;;;;;;;3.20;1.90;;;;;;;3.66;76.67;97934.03;5049886;28;20037;-40
2023/10/29 03:40:59;;;;;;;2.60;1.92;;;;;;;3.67;76.43;97933.97;5035099;28;20603;-39
2023/10/29 03:43:24;;;;;;;2.42;1.90;;;;;;;3.69;76.39;97936.47;5033618;28;20169;-40
2023/10/29 03:45:52;;;;;;;3.88;2.10;;;;;;;3.73;76.64;97953.47;5031902;28;20091;-39
2023/10/29 03:48:18;;;;;;;3.65;2.20;;;;;;;3.73;76.41;97949.16;5032518;28;20037;-39
2023/10/29 03:50:44;;;;;;;2.67;1.95;;;;;;;3.71;76.51;97952.69;5038777;28;20048;-39
2023/10/29 03:53:10;;;;;;;3.22;2.20;;;;;;;3.69;76.57;97960.44;5037770;28;20509;-39
2023/10/29 03:55:36;;;;;;;3.42;2.38;;;;;;;3.69;76.45;97955.31;5033456;28;20048;-39
2023/10/29 03:58:04;;;;;;;3.08;2.10;;;;;;;3.71;76.50;97966.41;5049551;28;20037;-40
2023/10/29 04:00:32;;;;;;;3.08;2.13;;;;;;;3.66;76.12;97970.84;5049425;28;20037;-39
2023/10/29 04:03:01;;;;;;;3.95;2.20;;;;;;;3.65;76.17;97974.31;5046587;28;20034;-40
2023/10/29 04:05:28;;;;;;;3.35;1.88;;;;;;;3.48;76.08;97957.78;5021690;28;20064;-39
2023/10/29 04:07:55;;;;;;;3.33;2.10;;;;;;;3.60;75.80;97989.03;5044145;28;20579;-39
2023/10/29 04:10:21;;;;;;;5.15;2.90;;;;;;;3.42;76.11;97957.09;5036909;28;20041;-40
2023/10/29 04:12:47;;;;;;;2.75;1.90;;;;;;;3.59;75.84;97997.63;5041400;28;20040;-38
2023/10/29 04:15:13;;;;;;;3.63;2.53;;;;;;;3.63;75.75;98004.34;5038029;28;20528;-39
2023/10/29 04:17:39;;;;;;;2.58;1.75;;;;;;;3.64;75.55;98006.03;5016566;28;20037;-39
2023/10/29 04:20:06;;;;;;;3.70;2.50;;;;;;;3.64;75.95;98005.19;5033023;28;20033;-40
2023/10/29 04:22:33;;;;;;;4.20;2.22;;;;;;;3.61;76.20;98015.56;5031041;28;20517;-47
2023/10/29 04:24:59;;;;;;;3.22;2.30;;;;;;;3.68;76.32;98030.72;5033350;28;20045;-39
2023/10/29 04:27:25;;;;;;;3.78;2.45;;;;;;;3.71;76.59;98024.66;5033624;28;20042;-40
2023/10/29 04:29:52;;;;;;;2.90;1.83;;;;;;;3.73;76.26;98020.28;5031548;28;20094;-39
2023/10/29 04:32:18;;;;;;;4.80;2.70;;;;;;;3.71;76.07;98029.78;5032942;28;20455;-39
2023/10/29 04:34:44;;;;;;;3.53;2.35;;;;;;;3.68;76.16;98035.00;5049230;28;20428;-39
2023/10/29 04:37:10;;;;;;;3.08;2.20;;;;;;;3.46;76.10;98004.03;5035415;28;20045;-39
2023/10/29 04:39:38;;;;;;;2.78;2.25;;;;;;;3.65;76.05;98035.97;5034442;28;20110;-39
2023/10/29 04:42:05;;;;;;;3.45;2.55;;;;;;;3.46;76.09;98011.75;5035986;28;20041;-39
2023/10/29 04:44:33;;;;;;;3.78;2.40;;;;;;;3.53;75.82;98033.78;5032038;28;20048;-39
2023/10/29 04:47:02;;;;;;;4.47;2.63;;;;;;;3.57;76.17;98045.66;5021065;28;20102;-38
2023/10/29 04:49:28;;;;;;;3.27;2.33;;;;;;;3.56;76.10;98043.97;5041820;28;20044;-41
2023/10/29 04:51:54;;;;;;;3.92;2.63;;;;;;;3.60;75.87;98060.13;5027890;28;20420;-40
2023/10/29 04:54:20;;;;;;;4.20;2.40;;;;;;;3.62;76.23;98061.75;5031341;28;20079;-40
2023/10/29 04:56:46;;;;;;;4.20;2.58;;;;;;;3.61;75.74;98056.69;5034314;28;20260;-41
2023/10/29 04:59:13;;;;;;;4.03;2.88;;;;;;;3.61;75.85;98060.06;5048545;28;20041;-40
2023/10/29 05:01:39;;;;;;;5.47;2.60;;;;;;;3.63;75.72;98071.13;5033687;28;20092;-40
2023/10/29 05:04:05;;;;;;;4.28;2.55;;;;;;;3.59;75.53;98063.59;5034942;28;20073;-39
2023/10/29 05:06:31;;;;;;;5.05;2.72;;;;;;;3.61;75.79;98077.22;5032431;28;20382;-40
2023/10/29 05:08:58;;;;;;;3.55;2.45;;;;;;;3.60;75.31;98080.69;5033879;28;20150;-39
2023/10/29 05:11:24;;;;;;;5.90;2.88;;;;;;;3.51;75.32;98070.72;5032020;28;20045;-40
2023/10/29 05:13:50;;;;;;;4.30;2.75;;;;;;;3.58;75.29;98082.44;5033455;28;20075;-39
2023/10/29 05:16:19;;;;;;;6.53;2.97;;;;;;;3.61;75.30;98098.59;5033431;28;20048;-40
2023/10/29 05:18:45;;;;;;;3.55;2.38;;;;;;;3.59;75.24;98087.56;5044744;28;20429;-39
2023/10/29 05:21:11;;;;;;;3.80;2.63;;;;;;;3.61;75.18;98095.22;5032620;28;20843;-39
2023/10/29 05:23:38;;;;;;;5.68;2.70;;;;;;;3.65;75.58;98094.22;5037455;28;20124;-42
2023/10/29 05:26:04;;;;;;;4.53;2.72;;;;;;;3.44;75.36;98057.22;5033323;28;20055;-40
2023/10/29 05:28:30;;;;;;;6.80;3.05;;;;;;;3.68;75.22;98101.81;5047000;28;20069;-38
2023/10/29 05:30:56;;;;;;;5.15;2.83;;;;;;;3.54;75.14;98081.72;5031666;28;20740;-41
2023/10/29 05:33:22;;;;;;;5.63;3.33;;;;;;;3.66;75.25;98098.47;5033326;28;20049;-40
2023/10/29 05:35:48;;;;;;;5.60;3.13;;;;;;;3.51;75.00;98078.41;5031625;28;20120;-40
2023/10/29 05:38:14;;;;;;;6.60;3.53;;;;;;;3.76;75.25;98105.00;5031395;28;20087;-39
2023/10/29 05:40:40;;;;;;;5.82;3.17;;;;;;;3.78;75.33;98105.78;5033764;28;20041;-39
2023/10/29 05:43:06;;;;;;;4.82;3.17;;;;;;;3.76;75.06;98116.13;5032826;28;20045;-39
2023/10/29 05:45:33;;;;;;;6.47;3.30;;;;;;;3.72;75.25;98117.09;5032065;28;20172;-40
2023/10/29 05:47:58;;;;;;;5.53;3.35;;;;;;;3.50;74.99;98087.00;5047557;28;20139;-40
2023/10/29 05:50:25;;;;;;;5.47;3.20;;;;;;;3.69;75.04;98119.78;5033065;28;20044;-40
2023/10/29 05:52:50;;;;;;;5.35;3.47;;;;;;;3.77;74.98;98125.50;5048345;28;20590;-40
2023/10/29 05:55:18;;;;;;;6.30;2.97;;;;;;;3.81;74.73;98133.97;5030551;28;20151;-40
2023/10/29 05:57:45;;;;;;;6.85;3.13;;;;;;;3.83;74.89;98135.59;5029665;28;20044;-39
2023/10/29 06:00:12;;;;;;;6.00;3.42;;;;;;;3.83;74.49;98145.88;5031733;28;20187;-40
2023/10/29 06:02:41;;;;;;;;;;;;;;;3.83;74.59;98150.16;5032706;28;20047;-39
2023/10/29 06:05:07;;;;;;;5.55;3.55;;;;;;;3.81;74.42;98159.66;5031678;28;20397;-40
2023/10/29 06:07:33;;;;;;;7.68;4.40;;;;;;;3.87;74.84;98167.19;5032383;28;20048;-40
2023/10/29 06:09:59;;;;;;;7.90;3.70;;;;;;;3.60;74.62;98114.94;5032439;28;20618;-41
2023/10/29 06:12:26;;;;;;;7.30;3.30;;;;;;;3.92;74.52;98162.75;5044377;28;20045;-41
2023/10/29 06:14:52;;;;;;;6.53;3.83;;;;;;;3.88;74.39;98168.00;5031703;28;20166;-39
2023/10/29 06:17:19;;;;;;;8.32;4.07;;;;;;;3.92;74.62;98170.47;5032853;28;20512;-40
2023/10/29 06:19:45;;;;;;;8.00;3.35;;;;;;;3.97;75.07;98178.00;5032344;28;20412;-40
2023/10/29 06:22:11;;;;;;;7.32;4.18;;;;;;;3.94;74.84;98167.81;5044857;28;20037;-40
2023/10/29 06:24:37;;;;;;;7.70;4.32;;;;;;;3.71;74.49;98137.72;5029798;28;20080;-41
2023/10/29 06:27:03;;;;;;;7.95;4.15;;;;;;;3.91;74.63;98173.06;5029385;28;20055;-40
2023/10/29 06:29:29;;;;;;;5.85;3.55;;;;;;;3.82;74.70;98151.88;5047419;28;20630;-40
2023/10/29 06:31:55;;;;;;;6.25;3.60;;;;;;;3.95;74.68;98164.34;5031766;28;20094;-39
2023/10/29 06:34:22;;;;;;;8.98;3.95;;;;;;;4.12;74.82;98187.81;5032818;28;20045;-39
2023/10/29 06:36:48;;;;;;;8.77;3.85;;;;;;;4.17;74.35;98185.91;5031944;28;20540;-41
2023/10/29 06:39:13;;;;;;;5.97;3.55;;;;;;;4.22;74.55;98200.31;5031902;28;20199;-40
2023/10/29 06:41:40;;;;;;;7.43;4.18;;;;;;;4.23;74.08;98198.59;5029418;28;20088;-40
2023/10/29 06:44:06;;;;;;;9.00;4.40;;;;;;;4.26;74.01;98195.91;5032093;28;20037;-39
2023/10/29 06:46:32;;;;;;;8.63;4.10;;;;;;;4.29;73.97;98200.97;5031831;28;20045;-40
2023/10/29 06:48:58;;;;;;;7.43;4.07;;;;;;;4.28;73.97;98208.72;5039239;28;20540;-40
2023/10/29 06:51:24;;;;;;;6.90;3.85;;;;;;;4.26;74.34;98209.59;5062834;28;20045;-40
2023/10/29 06:53:50;;;;;;;8.60;4.22;;;;;;;4.08;73.91;98181.91;5069281;28;20070;-40
2023/10/29 06:56:16;;;;;;;6.55;3.83;;;;;;;4.21;74.11;98211.50;5042466;28;20033;-42
2023/10/29 06:58:42;;;;;;;6.80;3.90;;;;;;;3.86;74.27;98159.53;5030196;28;20125;-40
2023/10/29 07:01:09;;;;;;;7.60;3.65;;;;;;;4.15;74.10;98221.13;5048210;28;20538;-41
2023/10/29 07:03:36;;;;;;;12.70;6.63;;;;;;;4.05;73.95;98227.44;5035048;28;20045;-41
2023/10/29 07:06:05;;;;;;;8.60;4.22;;;;;;;4.05;74.17;98230.03;5039994;28;20144;-40
2023/10/29 07:08:32;;;;;;;17.17;4.70;;;;;;;3.79;73.88;98205.13;5049923;28;20044;-39
2023/10/29 07:10:58;;;;;;;7.68;4.43;;;;;;;3.88;74.15;98238.25;5051722;28;20045;-39
2023/10/29 07:13:24;;;;;;;11.43;4.22;;;;;;;3.94;73.95;98244.94;5047870;28;20048;-40
2023/10/29 07:15:51;;;;;;;8.73;3.88;;;;;;;3.98;74.19;98251.69;5040955;28;20409;-39
2023/10/29 07:18:17;;;;;;;8.48;4.22;;;;;;;3.99;73.96;98253.34;5043359;28;20049;-42
2023/10/29 07:20:43;;;;;;;8.05;4.00;;;;;;;3.74;74.03;98230.13;5046262;28;20462;-39
2023/10/29 07:23:09;;;;;;;9.77;4.43;;;;;;;3.85;74.24;98261.50;5040461;28;20044;-40
2023/10/29 07:25:35;;;;;;;7.45;3.88;;;;;;;3.91;74.69;98268.19;5044619;28;20096;-40
2023/10/29 07:28:01;;;;;;;8.48;4.25;;;;;;;3.89;74.45;98265.66;5044661;28;20508;-41
2023/10/29 07:30:27;;;;;;;8.32;4.45;;;;;;;3.86;74.56;98281.19;5047230;28;20432;-40
2023/10/29 07:32:53;;;;;;;7.05;3.97;;;;;;;3.77;74.50;98279.69;5047318;28;20049;-41
2023/10/29 07:35:20;;;;;;;8.88;4.53;;;;;;;3.72;74.44;98281.56;5036614;28;20045;-41
2023/10/29 07:37:45;;;;;;;11.90;4.63;;;;;;;3.71;74.62;98285.03;5041897;28;20520;-42
2023/10/29 07:40:12;;;;;;;8.38;4.05;;;;;;;3.77;74.39;98295.13;5055114;28;20044;-39
2023/10/29 07:42:37;;;;;;;8.80;4.72;;;;;;;3.76;74.77;98292.63;5048136;28;20048;-40
2023/10/29 07:45:03;;;;;;;8.10;4.35;;;;;;;3.79;74.55;98295.94;5057108;28;20044;-40
2023/10/29 07:47:31;;;;;;;8.00;4.25;;;;;;;3.86;74.57;98298.31;5053232;28;20057;-40
2023/10/29 07:49:58;;;;;;;7.57;4.38;;;;;;;3.92;74.31;98296.41;5040141;28;20061;-39
2023/10/29 07:52:24;;;;;;;8.45;4.13;;;;;;;3.95;74.50;98303.19;5051534;28;20051;-40
2023/10/29 07:54:50;;;;;;;8.57;3.88;;;;;;;3.60;74.30;98291.38;5037861;28;20140;-41
2023/10/29 07:57:15;;;;;;;8.60;4.88;;;;;;;3.71;74.60;98315.88;5053105;28;20383;-42
2023/10/29 07:59:42;;;;;;;10.15;4.60;;;;;;;3.79;74.78;98320.78;5052755;28;20052;-40
2023/10/29 08:02:08;;;;;;;7.03;4.28;;;;;;;3.80;74.45;98328.47;5050365;28;20077;-40
2023/10/29 08:04:34;;;;;;;7.90;4.32;;;;;;;3.84;74.71;98335.19;5056640;28;20045;-49
2023/10/29 08:07:01;;;;;;;7.95;4.30;;;;;;;3.74;74.19;98326.06;5042844;28;20421;-42
2023/10/29 08:09:27;;;;;;;8.30;3.90;;;;;;;3.71;74.30;98336.44;5035701;28;20037;-42
2023/10/29 08:11:53;;;;;;;11.57;4.70;;;;;;;3.57;74.15;98317.13;5067703;28;20071;-43
2023/10/29 08:14:19;;;;;;;10.77;5.40;;;;;;;3.87;74.18;98347.13;5052126;28;20064;-43
2023/10/29 08:16:45;;;;;;;8.90;4.05;;;;;;;3.93;74.52;98348.66;5051331;28;20123;-42
2023/10/29 08:19:10;;;;;;;6.65;4.28;;;;;;;3.94;74.16;98358.91;5049690;28;20055;-41
2023/10/29 08:21:36;;;;;;;8.35;4.78;;;;;;;3.98;74.11;98362.25;5055544;28;20171;-41
2023/10/29 08:24:02;;;;;;;7.78;4.47;;;;;;;3.95;73.47;98359.75;5054395;28;20048;-43
2023/10/29 08:26:29;;;;;;;8.05;4.18;;;;;;;3.98;74.27;98367.38;5055923;28;20044;-42
2023/10/29 08:28:55;;;;;;;9.07;4.60;;;;;;;4.04;73.85;98362.03;5051344;28;20447;-42
2023/10/29 08:31:24;;;;;;;8.30;4.72;;;;;;;3.71;73.43;98315.88;5053785;28;20036;-40
2023/10/29 08:33:50;;;;;;;10.33;5.00;;;;;;;3.94;73.98;98364.03;5055858;28;20103;-41
2023/10/29 08:36:16;;;;;;;8.52;3.90;;;;;;;3.82;73.62;98344.66;5053131;28;20283;-42
2023/10/29 08:38:42;;;;;;;7.28;3.78;;;;;;;3.95;73.49;98377.75;5040005;28;20049;-41
2023/10/29 08:41:13;;;;;;;6.55;3.92;;;;;;;3.82;73.75;98383.22;5052790;28;20510;-41
2023/10/29 08:43:38;;;;;;;8.95;4.32;;;;;;;3.70;73.37;98387.88;5053310;28;20089;-42
2023/10/29 08:46:04;;;;;;;7.80;4.25;;;;;;;3.65;74.05;98385.44;5046131;28;20042;-42
2023/10/29 08:48:31;;;;;;;9.82;4.60;;;;;;;3.63;73.77;98383.78;5030384;28;20049;-41
2023/10/29 08:50:57;;;;;;;6.40;3.40;;;;;;;3.73;73.65;98396.34;5058982;28;20055;-43
2023/10/29 08:53:23;;;;;;;8.27;4.55;;;;;;;3.52;73.82;98391.78;5050510;28;20376;-41
2023/10/29 08:55:49;;;;;;;8.32;4.63;;;;;;;3.67;74.12;98398.22;5053806;28;20044;-41
2023/10/29 08:58:14;;;;;;;7.60;4.25;;;;;;;3.71;73.57;98405.00;5052300;28;20098;-41
2023/10/29 09:00:40;;;;;;;7.35;4.28;;;;;;;3.66;74.25;98407.69;5049887;28;20039;-40
2023/10/29 09:03:06;;;;;;;9.07;5.13;;;;;;;3.67;74.27;98395.66;5054380;28;20054;-41
2023/10/29 09:05:32;;;;;;;8.18;4.60;;;;;;;3.85;73.98;98408.00;5053559;28;20037;-42
2023/10/29 09:07:58;;;;;;;8.00;4.22;;;;;;;3.88;73.93;98405.34;5041497;28;20128;-41
2023/10/29 09:10:24;;;;;;;8.43;4.78;;;;;;;3.93;73.78;98405.22;5035364;28;20044;-42
2023/10/29 09:12:51;;;;;;;8.45;4.40;;;;;;;3.88;73.78;98418.19;5032471;28;20483;-42
2023/10/29 09:15:18;;;;;;;8.65;4.82;;;;;;;3.98;73.71;98422.19;5032023;28;20056;-39
2023/10/29 09:17:44;;;;;;;8.68;4.50;;;;;;;4.00;73.25;98420.44;5033328;28;20416;-41
2023/10/29 09:20:12;;;;;;;11.23;5.15;;;;;;;3.90;73.30;98387.31;5042324;28;20044;-40
2023/10/29 09:22:38;;;;;;;10.70;5.47;;;;;;;4.19;72.64;98426.72;5037899;28;20611;-41
2023/10/29 09:25:04;;;;;;;11.00;5.15;;;;;;;4.20;72.74;98427.56;5048422;28;20579;-41
2023/10/29 09:27:30;;;;;;;6.63;3.78;;;;;;;4.25;72.17;98430.84;5034097;28;20429;-41
2023/10/29 09:29:56;;;;;;;9.80;5.65;;;;;;;4.11;72.18;98430.41;5032519;28;20060;-42
2023/10/29 09:32:23;;;;;;;9.65;5.07;;;;;;;4.25;72.38;98436.84;5047723;28;20573;-42
2023/10/29 09:34:51;;;;;;;8.07;4.88;;;;;;;4.25;72.16;98439.41;5032455;28;20068;-43
2023/10/29 09:37:17;;;;;;;8.82;4.72;;;;;;;4.32;71.51;98444.38;5049284;28;20635;-42
2023/10/29 09:39:43;;;;;;;11.55;4.68;;;;;;;4.38;71.83;98442.50;5045105;28;20124;-43
2023/10/29 09:42:11;;;;;;;10.23;5.25;;;;;;;4.38;71.72;98447.63;5040905;28;20563;-42
2023/10/29 09:44:42;;;;;;;7.75;4.68;;;;;;;4.38;71.86;98455.34;5028695;28;20041;-40
2023/10/29 09:47:14;;;;;;;8.05;4.30;;;;;;;4.44;71.98;98460.31;5032958;28;20099;-40
2023/10/29 09:49:41;;;;;;;6.28;4.22;;;;;;;4.47;71.38;98456.81;5029863;28;20033;-41
2023/10/29 09:52:08;;;;;;;6.53;4.20;;;;;;;4.44;70.92;98462.91;5039085;28;20048;-40
2023/10/29 09:54:34;;;;;;;9.48;4.40;;;;;;;4.47;71.21;98472.25;5034642;28;20788;-38
2023/10/29 09:57:00;;;;;;;9.02;4.97;;;;;;;4.55;70.71;98473.69;5047086;28;20045;-41
2023/10/29 09:59:26;;;;;;;8.02;4.97;;;;;;;4.51;70.48;98473.81;5031915;28;20068;-40
2023/10/29 10:01:52;;;;;;;8.15;4.13;;;;;;;4.55;70.69;98476.25;5032233;28;20037;-38
2023/10/29 10:04:18;;;;;;;8.60;4.35;;;;;;;4.59;70.82;98489.91;5032689;28;20052;-40
2023/10/29 10:06:45;;;;;;;9.55;4.60;;;;;;;4.57;70.75;98487.38;5031260;28;20038;-41
2023/10/29 10:09:13;;;;;;;6.78;4.20;;;;;;;4.58;70.29;98493.34;5029894;28;20179;-39
2023/10/29 10:11:39;;;;;;;7.97;4.30;;;;;;;4.60;70.70;98497.59;5048153;28;20052;-39
2023/10/29 10:14:05;;;;;;;7.28;4.43;;;;;;;4.63;70.00;98500.06;5049662;28;20520;-40
2023/10/29 10:16:31;;;;;;;13.52;5.40;;;;;;;4.40;69.91;98458.69;5032286;28;20132;-41
2023/10/29 10:18:59;;;;;;;7.22;4.05;;;;;;;4.64;70.07;98499.19;5028809;28;20079;-38
2023/10/29 10:21:40;;;;;;;6.55;3.67;;;;;;;4.60;69.88;98501.88;5032074;28;20041;-40
2023/10/29 10:24:06;;;;;;;6.35;3.92;;;;;;;4.52;69.86;98508.97;5028545;28;20057;-39
2023/10/29 10:26:34;;;;;;;6.15;3.83;;;;;;;4.37;69.57;98473.41;5015317;28;20076;-37
2023/10/29 10:29:05;;;;;;;6.15;3.95;;;;;;;4.56;69.98;98515.72;5032105;28;20049;-38
2023/10/29 10:31:33;;;;;;;7.55;3.83;;;;;;;4.47;69.88;98503.97;5032565;28;20100;-38
2023/10/29 10:34:19;;;;;;;6.50;3.92;;;;;;;4.30;69.64;98467.56;5032432;28;20068;-48
2023/10/29 10:36:49;;;;;;;6.88;3.67;;;;;;;4.58;69.78;98526.81;5047489;28;20041;-46
2023/10/29 10:39:15;;;;;;;6.03;3.67;;;;;;;4.38;69.68;98501.66;5025857;28;20048;-47
2023/10/29 10:41:46;;;;;;;8.18;4.15;;;;;;;4.35;69.70;98506.88;5033735;28;20045;-47
2023/10/29 10:44:16;;;;;;;5.78;3.78;;;;;;;4.41;69.67;98531.59;5036836;28;20124;-49
2023/10/29 10:46:50;;;;;;;6.93;3.95;;;;;;;4.36;69.44;98536.03;5042490;28;20563;-48
2023/10/29 10:49:17;;;;;;;5.68;3.47;;;;;;;4.36;69.75;98549.72;5031636;28;20124;-48
2023/10/29 10:51:45;;;;;;;7.43;4.43;;;;;;;4.41;70.36;98547.88;5055135;28;20123;-46
2023/10/29 10:54:11;;;;;;;6.63;3.55;;;;;;;4.43;70.20;98553.00;5048822;28;20423;-51
2023/10/29 10:56:37;;;;;;;8.02;4.15;;;;;;;4.43;70.09;98553.84;5047406;28;20044;-50
2023/10/29 10:59:05;;;;;;;8.93;4.30;;;;;;;4.45;69.90;98557.19;5034511;28;20052;-48
2023/10/29 11:01:38;;;;;;;6.38;3.72;;;;;;;4.43;70.23;98558.97;5034110;28;20177;-49
2023/10/29 11:04:09;;;;;;;6.30;3.63;;;;;;;4.34;69.69;98559.25;5031341;28;20128;-53
2023/10/29 11:06:41;;;;;;;6.85;3.65;;;;;;;4.32;69.75;98568.72;5031174;28;20135;-46
2023/10/29 11:09:12;;;;;;;7.05;3.97;;;;;;;4.38;70.30;98562.56;5043744;28;20037;-45
2023/10/29 11:11:54;;;;;;;8.07;3.90;;;;;;;4.28;70.30;98579.13;5035567;28;20036;-45
2023/10/29 11:14:21;;;;;;;8.10;3.90;;;;;;;4.08;70.64;98556.53;5037233;28;20048;-48
2023/10/29 11:16:52;;;;;;;6.13;3.65;;;;;;;4.20;70.24;98577.59;5030158;28;20045;-51
2023/10/29 11:19:36;;;;;;;6.00;3.95;;;;;;;4.41;70.70;98596.75;5035063;28;20041;-50
2023/10/29 11:22:22;;;;;;;7.20;3.45;;;;;;;4.49;70.86;98597.41;5059192;28;20051;-50
2023/10/29 11:25:11;;;;;;;4.43;2.90;;;;;;;4.51;70.57;98605.06;5052217;28;20090;-47
2023/10/29 11:27:47;;;;;;;6.72;3.00;;;;;;;4.50;70.77;98616.28;5039507;28;20052;-50
2023/10/29 11:30:14;;;;;;;5.90;3.15;;;;;;;4.43;70.32;98614.75;5038578;28;20040;-46
2023/10/29 11:32:44;;;;;;;6.00;3.50;;;;;;;4.41;70.28;98619.06;5047678;28;20472;-50
2023/10/29 11:35:22;;;;;;;7.63;3.50;;;;;;;4.44;70.60;98624.16;5038176;28;20128;-53
2023/10/29 11:37:52;;;;;;;5.88;3.45;;;;;;;4.31;70.14;98599.63;5052876;28;20036;-51
2023/10/29 11:40:24;;;;;;;5.43;3.40;;;;;;;4.53;70.42;98622.19;5038611;28;20041;-48